Simpsons, Virginia
Current Conditions -  °F | °C
As of 5:55 PM on Sunday 21 Dec 2014 (Local Time) from KBCB Reporting Station
Overcast Overcast  
Wind Chill:   Ceiling: 3000
Heat Index:   Visibility: 10mi
Dew Point: -1°   Wind: 7mph
Humidity: 73%   Direction: 100°E
Pressure: 30.2"   Gusts: NA
Location:  37.0318°N, 80.2402°W
Report Text: KBCB 212255Z AUTO 10006KT 10SM OVC030 04/M01 A3020 RMK AO2 T00351010
Loading
Personal Weather Stations






























Interactive Weather Map New forecast layout! Learn more

10-Day Weather Forecast

Advertisements
Track Severe Weather on mobile